KBCE/BCE METAR and TAF weather

Enter ICAO airport designator
Station Type Date Time Source
KBCE METAR 2021/07/28 20:53 UTC NOAA

KBCE 282053Z AUTO 05012KT 10SM BKN100 23/09 A3043 RMK AO2 SLP186 T02280094 56007


Station Type Date Time Source
KBCE Decoded METAR 2021/07/28 20:53 UTC NOAA

BRYCE CANYON AIRPORT, UT, United States (KBCE) 37-42N 112-09W 2312M
Jul 28, 2021 - 04:53 PM EDT / 2021.07.28 2053 UTC
Wind: from the NE (050 degrees) at 14 MPH (12 KT):0
Visibility: 10 mile(s):0
Sky conditions: mostly cloudy
Temperature: 73.0 F (22.8 C)
Dew Point: 48.9 F (9.4 C)
Relative Humidity: 42%
Pressure (altimeter): 30.43 in. Hg (1030 hPa)
Pressure tendency: 0.02 inches (0.7 hPa) lower than three hours ago
ob: KBCE 282053Z AUTO 05012KT 10SM BKN100 23/09 A3043 RMK AO2 SLP186 T02280094 56007
cycle: 21

Station Type Date Time Source
KBCE TAF 2021/07/28 20:42 UTC NOAA

TAF
AMD KBCE 281940Z 2820/2918 05011KT P6SM VCTS SCT060CB BKN080
FM290000 30009KT P6SM BKN080

Example: see airport list